createdAt,value
2022-10-11T00:00:45.047Z,12.50
2022-10-11T00:01:45.157Z,12.52
2022-10-11T00:02:45.065Z,12.54
2022-10-11T00:03:45.005Z,12.59
2022-10-11T00:04:44.995Z,12.60
2022-10-11T00:05:45.026Z,12.64
2022-10-11T00:06:44.977Z,12.67
2022-10-11T00:07:44.994Z,12.72
2022-10-11T00:08:44.961Z,12.78
2022-10-11T00:09:44.945Z,12.82
2022-10-11T00:10:44.967Z,12.85
2022-10-11T00:11:44.937Z,12.87
2022-10-11T00:12:44.921Z,12.92
2022-10-11T00:13:44.898Z,12.96
2022-10-11T00:14:44.923Z,13.00
2022-10-11T00:15:44.878Z,13.01
2022-10-11T00:16:44.907Z,13.04
2022-10-11T00:17:44.893Z,13.04
2022-10-11T00:18:44.840Z,13.07
2022-10-11T00:19:44.863Z,13.10
2022-10-11T00:20:44.821Z,13.12
2022-10-11T00:21:44.866Z,13.14
2022-10-11T00:22:44.805Z,13.15
2022-10-11T00:23:44.797Z,13.19
2022-10-11T00:24:44.807Z,13.23
2022-10-11T00:25:44.775Z,13.26
2022-10-11T00:26:46.968Z,13.29
2022-10-11T00:27:44.763Z,13.30
2022-10-11T00:28:44.806Z,13.30
2022-10-11T00:29:44.736Z,13.29
2022-10-11T00:30:44.715Z,13.28
2022-10-11T00:31:44.697Z,13.28
2022-10-11T00:32:44.727Z,13.28
2022-10-11T00:33:44.704Z,13.26
2022-10-11T00:34:44.654Z,13.26
2022-10-11T00:35:44.655Z,13.28
2022-10-11T00:36:44.654Z,13.28
2022-10-11T00:37:44.648Z,13.28
2022-10-11T00:38:44.636Z,13.30
2022-10-11T00:39:44.619Z,13.29
2022-10-11T00:40:44.587Z,13.26
2022-10-11T00:41:44.596Z,13.28
2022-10-11T00:42:44.617Z,13.26
2022-10-11T00:43:44.614Z,13.28
2022-10-11T00:44:44.581Z,13.28
2022-10-11T00:45:44.538Z,13.29
2022-10-11T00:46:44.560Z,13.32
2022-10-11T00:47:44.550Z,13.32
2022-10-11T00:48:44.522Z,13.32
2022-10-11T00:49:44.548Z,13.32
2022-10-11T00:50:44.515Z,13.32
2022-10-11T00:51:44.506Z,13.36
2022-10-11T00:52:44.492Z,13.33
2022-10-11T00:53:44.439Z,13.33
2022-10-11T00:54:44.484Z,13.33
2022-10-11T00:55:44.690Z,13.33
2022-10-11T00:56:44.463Z,13.38
2022-10-11T00:57:44.410Z,13.38
2022-10-11T00:58:44.419Z,13.39
2022-10-11T00:59:44.387Z,13.41
2022-10-11T01:00:44.411Z,13.44
2022-10-11T01:01:44.456Z,13.44
2022-10-11T01:02:44.374Z,13.45
2022-10-11T01:03:44.370Z,13.46
2022-10-11T01:04:44.365Z,13.48
2022-10-11T01:05:44.332Z,13.48
2022-10-11T01:06:44.347Z,13.48
2022-10-11T01:07:44.307Z,13.51
2022-10-11T01:08:44.303Z,13.51
2022-10-11T01:09:44.277Z,13.52
2022-10-11T01:10:44.264Z,13.55
2022-10-11T01:11:44.248Z,13.54
2022-10-11T01:12:44.278Z,13.57
2022-10-11T01:13:44.216Z,13.55
2022-10-11T01:14:44.249Z,13.54
2022-10-11T01:15:44.229Z,13.54
2022-10-11T01:16:44.232Z,13.54
2022-10-11T01:17:44.196Z,13.54
2022-10-11T01:18:44.170Z,13.55
2022-10-11T01:19:44.156Z,13.57
2022-10-11T01:20:44.153Z,13.59
2022-10-11T01:21:44.149Z,13.62
2022-10-11T01:22:44.147Z,13.64
2022-10-11T01:23:44.106Z,13.66
2022-10-11T01:24:44.098Z,13.67
2022-10-11T01:25:44.092Z,13.69
2022-10-11T01:26:44.128Z,13.69
2022-10-11T01:27:44.061Z,13.71
2022-10-11T01:28:44.110Z,13.71
2022-10-11T01:29:44.059Z,13.70
2022-10-11T01:30:44.027Z,13.67
2022-10-11T01:31:44.034Z,13.66
2022-10-11T01:32:44.044Z,13.64
2022-10-11T01:33:44.014Z,13.63
2022-10-11T01:34:44.021Z,13.62
2022-10-11T01:35:43.994Z,13.60
2022-10-11T01:36:43.965Z,13.55
2022-10-11T01:37:44.005Z,13.54
2022-10-11T01:38:43.963Z,13.44
2022-10-11T01:39:43.976Z,13.38
2022-10-11T01:40:43.912Z,13.32
2022-10-11T01:41:43.931Z,13.25
2022-10-11T01:42:43.896Z,13.23
2022-10-11T01:43:43.887Z,13.20
2022-10-11T01:44:43.895Z,13.22
2022-10-11T01:45:43.894Z,13.17
2022-10-11T01:46:43.853Z,13.14
2022-10-11T01:47:43.849Z,13.12
2022-10-11T01:48:43.815Z,13.11
2022-10-11T01:49:43.826Z,13.14
2022-10-11T01:50:43.821Z,13.14
2022-10-11T01:51:47.143Z,13.15
2022-10-11T01:52:43.844Z,13.14
2022-10-11T01:53:43.769Z,13.11
2022-10-11T01:55:08.116Z,13.05
2022-10-11T01:55:44.765Z,13.01
2022-10-11T01:56:43.741Z,12.97
2022-10-11T01:57:43.745Z,12.97
2022-10-11T01:58:43.713Z,12.95
2022-10-11T01:59:43.688Z,12.92
2022-10-11T02:00:43.698Z,12.87
2022-10-11T02:01:43.839Z,12.86
2022-10-11T02:02:43.722Z,12.85
2022-10-11T02:03:43.693Z,12.83
2022-10-11T02:04:43.640Z,12.83
2022-10-11T02:05:43.629Z,12.83
2022-10-11T02:06:43.658Z,12.83
2022-10-11T02:07:43.622Z,12.85
2022-10-11T02:08:43.622Z,12.83
2022-10-11T02:09:43.600Z,12.83
2022-10-11T02:10:43.579Z,12.83
2022-10-11T02:11:43.595Z,12.83
2022-10-11T02:12:43.542Z,12.85
2022-10-11T02:13:43.610Z,12.85
2022-10-11T02:14:43.542Z,12.85
2022-10-11T02:15:43.524Z,12.85
2022-10-11T02:16:43.494Z,12.85
2022-10-11T02:17:43.517Z,12.82
2022-10-11T02:18:43.495Z,12.82
2022-10-11T02:19:43.517Z,12.82
2022-10-11T02:20:43.453Z,12.83
2022-10-11T02:21:43.486Z,12.83
2022-10-11T02:22:43.447Z,12.83
2022-10-11T02:23:43.459Z,12.82
2022-10-11T02:24:43.448Z,12.79
2022-10-11T02:25:43.427Z,12.77
2022-10-11T02:26:43.417Z,12.77
2022-10-11T02:27:43.396Z,12.77
2022-10-11T02:28:43.439Z,12.77
2022-10-11T02:29:43.393Z,12.75
2022-10-11T02:30:43.356Z,12.75
2022-10-11T02:31:43.327Z,12.72
2022-10-11T02:32:43.360Z,12.72
2022-10-11T02:33:43.320Z,12.72
2022-10-11T02:34:43.337Z,12.75
2022-10-11T02:35:43.325Z,12.75
2022-10-11T02:36:43.277Z,12.75
2022-10-11T02:37:43.257Z,12.78
2022-10-11T02:38:43.247Z,12.78
2022-10-11T02:39:43.251Z,12.79
2022-10-11T02:40:43.238Z,12.77
2022-10-11T02:41:43.260Z,12.75
2022-10-11T02:42:43.224Z,12.78
2022-10-11T02:43:43.191Z,12.74
2022-10-11T02:44:43.181Z,12.74
2022-10-11T02:45:43.171Z,12.72
2022-10-11T02:46:43.201Z,12.72
2022-10-11T02:47:43.155Z,12.71
2022-10-11T02:48:43.174Z,12.71
2022-10-11T02:49:43.135Z,12.68
2022-10-11T02:50:43.128Z,12.70
2022-10-11T02:51:43.125Z,12.71
2022-10-11T02:52:43.090Z,12.71
2022-10-11T02:53:43.124Z,12.72
2022-10-11T02:54:43.067Z,12.72
2022-10-11T02:55:43.056Z,12.71
2022-10-11T02:56:43.093Z,12.68
2022-10-11T02:57:43.037Z,12.65
2022-10-11T02:58:43.047Z,12.65
2022-10-11T02:59:43.024Z,12.64
2022-10-11T03:00:42.995Z,12.65
2022-10-11T03:01:43.040Z,12.65
2022-10-11T03:02:43.030Z,12.65
2022-10-11T03:03:42.987Z,12.68
2022-10-11T03:04:42.958Z,12.68
2022-10-11T03:05:42.961Z,12.70
2022-10-11T03:06:42.934Z,12.71
2022-10-11T03:07:42.941Z,12.71
2022-10-11T03:08:42.969Z,12.71
2022-10-11T03:09:42.911Z,12.72
2022-10-11T03:10:42.904Z,12.71
2022-10-11T03:11:42.935Z,12.72
2022-10-11T03:12:42.965Z,12.70
2022-10-11T03:13:42.849Z,12.71
2022-10-11T03:14:42.843Z,12.70
2022-10-11T03:15:42.840Z,12.68
2022-10-11T03:16:42.836Z,12.65
2022-10-11T03:17:42.868Z,12.65
2022-10-11T03:18:42.800Z,12.67
2022-10-11T03:19:42.815Z,12.65
2022-10-11T03:20:42.784Z,12.65
2022-10-11T03:21:42.751Z,12.65
2022-10-11T03:22:42.798Z,12.65
2022-10-11T03:23:42.768Z,12.64
2022-10-11T03:24:42.795Z,12.64
2022-10-11T03:25:42.722Z,12.62
2022-10-11T03:26:42.703Z,12.59
2022-10-11T03:27:42.726Z,12.57
2022-10-11T03:28:42.785Z,12.53
2022-10-11T03:29:42.703Z,12.52
2022-10-11T03:30:42.661Z,12.50
2022-10-11T03:31:42.668Z,12.47
2022-10-11T03:32:42.648Z,12.45
2022-10-11T03:33:42.693Z,12.41
2022-10-11T03:34:42.636Z,12.41
2022-10-11T03:35:42.596Z,12.39
2022-10-11T03:36:42.618Z,12.38
2022-10-11T03:37:42.580Z,12.34
2022-10-11T03:38:42.565Z,12.34
2022-10-11T03:39:42.620Z,12.32
2022-10-11T03:40:42.597Z,12.34
2022-10-11T03:41:42.541Z,12.34
2022-10-11T03:42:42.540Z,12.34
2022-10-11T03:43:42.509Z,12.31
2022-10-11T03:44:42.548Z,12.31
2022-10-11T03:45:42.547Z,12.31
2022-10-11T03:46:42.498Z,12.32
2022-10-11T03:47:42.484Z,12.31
2022-10-11T03:48:42.470Z,12.32
2022-10-11T03:49:43.739Z,12.29
2022-10-11T03:50:42.456Z,12.28
2022-10-11T03:51:42.453Z,12.27
2022-10-11T03:52:42.411Z,12.24
2022-10-11T03:53:42.539Z,12.23
2022-10-11T03:54:42.391Z,12.21
2022-10-11T03:55:42.421Z,12.21
2022-10-11T03:56:42.381Z,12.23
2022-10-11T03:57:42.374Z,12.27
2022-10-11T03:58:42.379Z,12.23
2022-10-11T03:59:42.346Z,12.27
2022-10-11T04:00:42.311Z,12.27
2022-10-11T04:01:42.387Z,12.27
2022-10-11T04:02:42.307Z,12.28
2022-10-11T04:03:42.315Z,12.28
2022-10-11T04:04:42.278Z,12.28
2022-10-11T04:05:42.275Z,12.28
2022-10-11T04:06:42.315Z,12.28
2022-10-11T04:07:42.257Z,12.28
2022-10-11T04:08:42.246Z,12.28
2022-10-11T04:09:42.238Z,12.24
2022-10-11T04:10:42.238Z,12.24
2022-10-11T04:11:42.242Z,12.21
2022-10-11T04:12:42.176Z,12.23
2022-10-11T04:13:42.191Z,12.27
2022-10-11T04:14:42.181Z,12.24
2022-10-11T04:15:42.200Z,12.24
2022-10-11T04:16:42.158Z,12.24
2022-10-11T04:17:42.168Z,12.24
2022-10-11T04:18:42.157Z,12.27
2022-10-11T04:19:42.107Z,12.23
2022-10-11T04:20:42.089Z,12.23
2022-10-11T04:21:42.117Z,12.19
2022-10-11T04:22:42.086Z,12.16
2022-10-11T04:23:42.073Z,12.09
2022-10-11T04:24:42.081Z,12.04
2022-10-11T04:25:42.070Z,11.98
2022-10-11T04:26:42.059Z,11.94
2022-10-11T04:27:42.024Z,11.91
2022-10-11T04:28:42.092Z,11.88
2022-10-11T04:29:42.003Z,11.83
2022-10-11T04:30:42.034Z,11.82
2022-10-11T04:31:42.034Z,11.78
2022-10-11T04:32:41.975Z,11.72
2022-10-11T04:33:42.544Z,11.72
2022-10-11T04:34:41.957Z,11.67
2022-10-11T04:35:41.926Z,11.64
2022-10-11T04:36:44.399Z,11.61
2022-10-11T04:37:42.909Z,11.60
2022-10-11T04:38:41.916Z,11.60
2022-10-11T04:39:41.966Z,11.58
2022-10-11T04:40:41.901Z,11.55
2022-10-11T04:41:41.894Z,11.52
2022-10-11T04:42:41.863Z,11.52
2022-10-11T04:43:41.917Z,11.49
2022-10-11T04:44:41.837Z,11.46
2022-10-11T04:45:41.805Z,11.42
2022-10-11T04:46:41.840Z,11.40
2022-10-11T04:47:41.850Z,11.37
2022-10-11T04:48:41.787Z,11.33
2022-10-11T04:49:41.779Z,11.29
2022-10-11T04:50:41.769Z,11.24
2022-10-11T04:51:41.780Z,11.22
2022-10-11T04:52:41.787Z,11.18
2022-10-11T04:53:41.730Z,11.15
2022-10-11T04:54:41.707Z,11.07
2022-10-11T04:55:41.713Z,11.02
2022-10-11T04:56:41.721Z,10.99
2022-10-11T04:57:41.722Z,10.92
2022-10-11T04:58:41.667Z,10.88
2022-10-11T04:59:42.929Z,10.82
2022-10-11T05:00:41.641Z,10.78
2022-10-11T05:01:41.731Z,10.73
2022-10-11T05:02:41.618Z,10.71
2022-10-11T05:03:41.720Z,10.68
2022-10-11T05:04:41.600Z,10.66
2022-10-11T05:05:41.582Z,10.66
2022-10-11T05:06:41.591Z,10.63
2022-10-11T05:07:41.582Z,10.61
2022-10-11T05:08:41.584Z,10.59
2022-10-11T05:09:41.555Z,10.56
2022-10-11T05:10:41.555Z,10.56
2022-10-11T05:11:41.555Z,10.55
2022-10-11T05:12:41.535Z,10.48
2022-10-11T05:13:41.527Z,10.40
2022-10-11T05:14:41.526Z,10.32
2022-10-11T05:15:41.472Z,10.25
2022-10-11T05:16:41.487Z,10.22
2022-10-11T05:17:41.472Z,10.20
2022-10-11T05:18:41.446Z,10.15
2022-10-11T05:19:41.467Z,10.12
2022-10-11T05:20:41.487Z,10.05
2022-10-11T05:21:41.414Z,10.01
2022-10-11T05:22:41.424Z,9.97
2022-10-11T05:23:41.399Z,9.96
2022-10-11T05:24:41.400Z,9.99
2022-10-11T05:25:41.367Z,9.96
2022-10-11T05:26:41.383Z,9.97
2022-10-11T05:27:41.365Z,9.94
2022-10-11T05:28:41.408Z,9.91
2022-10-11T05:29:41.350Z,9.89
2022-10-11T05:30:41.310Z,9.86
2022-10-11T05:31:41.328Z,9.84
2022-10-11T05:32:41.317Z,9.83
2022-10-11T05:33:41.311Z,9.84
2022-10-11T05:34:41.321Z,9.83
2022-10-11T05:35:41.251Z,9.83
2022-10-11T05:36:41.277Z,9.79
2022-10-11T05:37:41.246Z,9.79
2022-10-11T05:38:41.210Z,9.76
2022-10-11T05:39:41.199Z,9.74
2022-10-11T05:40:41.209Z,9.71
2022-10-11T05:41:41.199Z,9.71
2022-10-11T05:42:41.182Z,9.74
2022-10-11T05:43:41.173Z,9.75
2022-10-11T05:44:41.203Z,9.75
2022-10-11T05:45:41.152Z,9.75
2022-10-11T05:46:41.184Z,9.74
2022-10-11T05:47:41.126Z,9.72
2022-10-11T05:48:41.110Z,9.75
2022-10-11T05:49:41.096Z,9.78
2022-10-11T05:50:41.102Z,9.81
2022-10-11T05:51:41.075Z,9.81
2022-10-11T05:52:41.072Z,9.83
2022-10-11T05:53:41.273Z,9.84
2022-10-11T05:54:41.051Z,9.87
2022-10-11T05:55:41.067Z,9.89
2022-10-11T05:56:41.039Z,9.90
2022-10-11T05:57:41.003Z,9.87
2022-10-11T05:58:40.985Z,9.87
2022-10-11T05:59:40.965Z,9.86
2022-10-11T06:00:41.005Z,9.76
2022-10-11T06:01:41.025Z,9.71
2022-10-11T06:02:40.936Z,9.65
2022-10-11T06:03:40.938Z,9.64
2022-10-11T06:04:41.015Z,9.61
2022-10-11T06:05:40.923Z,9.61
2022-10-11T06:06:41.330Z,9.65
2022-10-11T06:07:40.905Z,9.66
2022-10-11T06:08:40.866Z,9.66
2022-10-11T06:09:40.867Z,9.68
2022-10-11T06:10:40.869Z,9.69
2022-10-11T06:11:40.836Z,9.71
2022-10-11T06:12:40.886Z,9.69
2022-10-11T06:13:40.809Z,9.72
2022-10-11T06:14:40.808Z,9.71
2022-10-11T06:15:40.788Z,9.66
2022-10-11T06:16:40.796Z,9.65
2022-10-11T06:17:40.821Z,9.65
2022-10-11T06:18:40.811Z,9.64
2022-10-11T06:19:40.740Z,9.65
2022-10-11T06:20:40.752Z,9.68
2022-10-11T06:21:40.736Z,9.71
2022-10-11T06:22:40.710Z,9.69
2022-10-11T06:23:40.751Z,9.68
2022-10-11T06:24:40.751Z,9.64
2022-10-11T06:25:40.673Z,9.64
2022-10-11T06:26:40.688Z,9.61
2022-10-11T06:27:40.681Z,9.64
2022-10-11T06:28:40.731Z,9.65
2022-10-11T06:29:40.667Z,9.68
2022-10-11T06:30:40.665Z,9.71
2022-10-11T06:31:40.626Z,9.75
2022-10-11T06:32:40.628Z,9.78
2022-10-11T06:33:40.636Z,9.76
2022-10-11T06:34:40.596Z,9.75
2022-10-11T06:35:40.561Z,9.74
2022-10-11T06:36:40.627Z,9.74
2022-10-11T06:37:40.565Z,9.75
2022-10-11T06:38:44.749Z,9.74
2022-10-11T06:39:40.543Z,9.76
2022-10-11T06:40:40.668Z,9.79
2022-10-11T06:41:40.547Z,9.83
2022-10-11T06:42:40.499Z,9.84
2022-10-11T06:43:40.466Z,9.84
2022-10-11T06:44:40.495Z,9.86
2022-10-11T06:45:40.456Z,9.90
2022-10-11T06:46:40.688Z,9.90
2022-10-11T06:47:40.470Z,9.87
2022-10-11T06:48:40.439Z,9.90
2022-10-11T06:49:40.426Z,9.91
2022-10-11T06:50:59.042Z,9.99
2022-10-11T06:51:41.467Z,10.01
2022-10-11T06:52:40.383Z,10.04
2022-10-11T06:53:41.370Z,10.04
2022-10-11T06:54:44.768Z,10.07
2022-10-11T06:55:40.340Z,10.08
2022-10-11T06:56:40.390Z,10.11
2022-10-11T06:57:40.348Z,10.12
2022-10-11T06:58:40.325Z,10.17
2022-10-11T06:59:40.431Z,10.20
2022-10-11T07:00:40.360Z,10.25
2022-10-11T07:01:40.335Z,10.26
2022-10-11T07:02:40.283Z,10.26
2022-10-11T07:03:40.335Z,10.30
2022-10-11T07:04:40.243Z,10.32
2022-10-11T07:05:40.235Z,10.34
2022-10-11T07:06:40.244Z,10.41
2022-10-11T07:07:40.200Z,10.44
2022-10-11T07:08:40.274Z,10.44
2022-10-11T07:09:40.181Z,10.42
2022-10-11T07:10:40.251Z,10.47
2022-10-11T07:11:40.153Z,10.52
2022-10-11T07:12:40.177Z,10.53
2022-10-11T07:13:40.156Z,10.55
2022-10-11T07:14:40.185Z,10.61
2022-10-11T07:15:40.113Z,10.66
2022-10-11T07:16:40.107Z,10.68
2022-10-11T07:17:40.098Z,10.73
2022-10-11T07:18:40.121Z,10.74
2022-10-11T07:19:40.085Z,10.76
2022-10-11T07:20:40.045Z,10.76
2022-10-11T07:21:40.034Z,10.78
2022-10-11T07:22:40.065Z,10.81
2022-10-11T07:23:40.050Z,10.82
2022-10-11T07:24:40.077Z,10.81
2022-10-11T07:25:39.995Z,10.84
2022-10-11T07:26:39.997Z,10.88
2022-10-11T07:27:39.996Z,10.92
2022-10-11T07:28:40.049Z,10.99
2022-10-11T07:29:40.001Z,10.96
2022-10-11T07:30:40.057Z,10.94
2022-10-11T07:31:39.927Z,10.94
2022-10-11T07:32:39.931Z,10.99
2022-10-11T07:33:39.929Z,11.02
2022-10-11T07:34:39.921Z,11.06
2022-10-11T07:35:39.908Z,11.07
2022-10-11T07:36:39.892Z,11.14
2022-10-11T07:37:39.890Z,11.18
2022-10-11T07:38:39.900Z,11.21
2022-10-11T07:39:39.852Z,11.27
2022-10-11T07:40:39.852Z,11.32
2022-10-11T07:41:45.435Z,11.36
2022-10-11T07:42:42.919Z,11.40
2022-10-11T07:43:39.811Z,11.43
2022-10-11T07:44:39.809Z,11.47
2022-10-11T07:45:39.795Z,11.52
2022-10-11T07:46:39.801Z,11.55
2022-10-11T07:47:39.795Z,11.58
2022-10-11T07:48:39.741Z,11.58
2022-10-11T07:49:39.774Z,11.58
2022-10-11T07:50:39.712Z,11.64
2022-10-11T07:51:39.715Z,11.67
2022-10-11T07:52:39.693Z,11.72
2022-10-11T07:53:39.702Z,11.73
2022-10-11T07:54:39.696Z,11.75
2022-10-11T07:55:39.697Z,11.78
2022-10-11T07:56:39.665Z,11.79
2022-10-11T07:57:39.644Z,11.82
2022-10-11T07:58:39.667Z,11.83
2022-10-11T07:59:39.614Z,11.91
2022-10-11T08:00:39.659Z,11.94
2022-10-11T08:01:40.674Z,11.96
2022-10-11T08:02:39.615Z,11.99
2022-10-11T08:03:39.575Z,12.01
2022-10-11T08:04:39.589Z,12.05
2022-10-11T08:05:39.569Z,12.10
2022-10-11T08:06:39.565Z,12.17
2022-10-11T08:07:39.534Z,12.27
2022-10-11T08:08:39.529Z,12.29
2022-10-11T08:09:39.530Z,12.35
2022-10-11T08:10:39.527Z,12.41
2022-10-11T08:11:39.517Z,12.49
2022-10-11T08:12:39.491Z,12.54
2022-10-11T08:13:39.447Z,12.62
2022-10-11T08:14:39.447Z,12.67
2022-10-11T08:15:39.428Z,12.71
2022-10-11T08:16:39.478Z,12.72
2022-10-11T08:17:39.421Z,12.77
2022-10-11T08:18:39.413Z,12.74
2022-10-11T08:19:39.402Z,12.77
2022-10-11T08:20:39.413Z,12.78
2022-10-11T08:21:39.424Z,12.79
2022-10-11T08:22:39.374Z,12.85
2022-10-11T08:23:39.364Z,12.87
2022-10-11T08:24:39.374Z,12.90
2022-10-11T08:25:39.334Z,12.90
2022-10-11T08:26:39.342Z,12.93
2022-10-11T08:27:39.411Z,12.92
2022-10-11T08:28:39.367Z,12.95
2022-10-11T08:29:39.274Z,13.03
2022-10-11T08:30:39.273Z,13.01
2022-10-11T08:31:39.294Z,13.01
2022-10-11T08:32:39.303Z,13.05
2022-10-11T08:33:39.254Z,13.11
2022-10-11T08:34:39.244Z,13.15
2022-10-11T08:35:39.225Z,13.22
2022-10-11T08:36:39.185Z,13.30
2022-10-11T08:37:39.262Z,13.41
2022-10-11T08:38:39.189Z,13.49
2022-10-11T08:39:39.160Z,13.57
2022-10-11T08:40:39.176Z,13.64
2022-10-11T08:41:39.158Z,13.70
2022-10-11T08:42:39.392Z,13.82
2022-10-11T08:43:39.150Z,13.96
2022-10-11T08:45:05.870Z,14.15
2022-10-11T08:45:40.105Z,14.43
2022-10-11T08:46:39.079Z,15.03
2022-10-11T08:47:39.096Z,15.90
2022-10-11T08:48:39.111Z,17.08
2022-10-11T08:49:39.080Z,18.18
2022-10-11T08:50:39.028Z,19.26
2022-10-11T08:51:39.052Z,20.13
2022-10-11T08:52:39.032Z,20.43
2022-10-11T08:53:39.073Z,19.46
2022-10-11T08:54:39.009Z,18.52
2022-10-11T08:55:39.019Z,17.89
2022-10-11T08:56:39.003Z,17.37
2022-10-11T08:57:39.064Z,17.15
2022-10-11T08:58:38.989Z,17.01
2022-10-11T08:59:38.943Z,16.81
2022-10-11T09:00:38.980Z,16.52
2022-10-11T09:01:38.987Z,16.23
2022-10-11T09:03:06.217Z,16.02
2022-10-11T09:03:39.903Z,15.92
2022-10-11T09:04:38.967Z,15.87
2022-10-11T09:05:38.891Z,15.92
2022-10-11T09:06:38.879Z,16.00
2022-10-11T09:07:38.848Z,16.07
2022-10-11T09:08:38.879Z,16.09
2022-10-11T09:09:38.848Z,16.12
2022-10-11T09:10:38.862Z,16.05
2022-10-11T09:11:38.795Z,16.09
2022-10-11T09:12:40.988Z,16.25
2022-10-11T09:13:38.808Z,16.33
2022-10-11T09:14:38.777Z,16.97
2022-10-11T09:15:38.756Z,18.23
2022-10-11T09:16:38.830Z,19.56
2022-10-11T09:17:38.744Z,20.69
2022-10-11T09:18:38.762Z,21.29
2022-10-11T09:19:38.753Z,21.37
2022-10-11T09:20:38.699Z,19.59
2022-10-11T09:21:38.735Z,18.44
2022-10-11T09:22:38.700Z,17.51
2022-10-11T09:23:38.700Z,19.11
2022-10-11T09:24:38.665Z,20.23
2022-10-11T09:25:38.642Z,21.06
2022-10-11T09:26:38.637Z,21.91
2022-10-11T09:28:01.208Z,22.57
2022-10-11T09:28:39.698Z,22.73
2022-10-11T09:29:38.613Z,21.46
2022-10-11T09:30:38.627Z,19.91
2022-10-11T09:31:38.589Z,18.76
2022-10-11T09:32:38.642Z,18.03
2022-10-11T09:33:38.597Z,17.62
2022-10-11T09:34:38.614Z,17.37
2022-10-11T09:35:38.524Z,17.30
2022-10-11T09:36:38.515Z,17.34
2022-10-11T09:37:38.505Z,18.60
2022-10-11T09:38:38.535Z,20.48
2022-10-11T09:39:38.565Z,21.90
2022-10-11T09:40:38.530Z,21.28
2022-10-11T09:41:38.499Z,20.23
2022-10-11T09:42:38.511Z,20.42
2022-10-11T09:43:38.449Z,20.54
2022-10-11T09:44:38.432Z,20.95
2022-10-11T09:45:38.474Z,20.58
2022-10-11T09:46:38.472Z,20.35
2022-10-11T09:47:38.450Z,20.21
2022-10-11T09:48:38.390Z,21.14
2022-10-11T09:49:38.413Z,22.65
2022-10-11T09:50:38.441Z,23.66
2022-10-11T09:51:38.364Z,24.32
2022-10-11T09:52:38.349Z,24.85
2022-10-11T09:53:38.349Z,25.28
2022-10-11T09:54:38.365Z,25.09
2022-10-11T09:55:38.309Z,24.91
2022-10-11T09:56:38.344Z,24.42
2022-10-11T09:57:38.308Z,23.05
2022-10-11T09:58:38.289Z,22.18
2022-10-11T09:59:38.267Z,21.52
2022-10-11T10:00:38.379Z,21.01
2022-10-11T10:01:38.276Z,20.57
2022-10-11T10:02:38.275Z,20.08
2022-10-11T10:03:38.264Z,19.65
2022-10-11T10:04:38.230Z,19.47
2022-10-11T10:05:38.187Z,19.28
2022-10-11T10:06:38.192Z,19.16
2022-10-11T10:07:38.191Z,19.83
2022-10-11T10:08:38.237Z,20.28
2022-10-11T10:09:38.150Z,19.73
2022-10-11T10:10:38.150Z,19.48
2022-10-11T10:11:38.154Z,19.68
2022-10-11T10:12:38.143Z,19.51
2022-10-11T10:13:38.174Z,19.33
2022-10-11T10:14:38.173Z,19.18
2022-10-11T10:15:38.152Z,19.06
2022-10-11T10:16:38.090Z,19.00
2022-10-11T10:17:38.087Z,19.26
2022-10-11T10:18:38.068Z,19.66
2022-10-11T10:19:41.113Z,20.05
2022-10-11T10:20:39.075Z,21.14
2022-10-11T10:21:38.063Z,22.35
2022-10-11T10:22:38.057Z,22.03
2022-10-11T10:23:37.993Z,21.37
2022-10-11T10:24:37.997Z,22.20
2022-10-11T10:25:43.096Z,21.96
2022-10-11T10:26:39.310Z,22.18
2022-10-11T10:27:37.969Z,22.43
2022-10-11T10:28:38.043Z,22.36
2022-10-11T10:29:37.939Z,22.64
2022-10-11T10:30:37.926Z,22.79
2022-10-11T10:32:01.581Z,23.02
2022-10-11T10:32:38.888Z,23.35
2022-10-11T10:33:38.198Z,23.20
2022-10-11T10:34:37.922Z,22.60
2022-10-11T10:35:37.924Z,22.73
2022-10-11T10:36:37.851Z,22.51
2022-10-11T10:37:37.876Z,22.68
2022-10-11T10:38:37.837Z,22.62
2022-10-11T10:39:37.862Z,22.37
2022-10-11T10:40:37.839Z,22.85
2022-10-11T10:41:37.791Z,23.31
2022-10-11T10:42:37.808Z,23.42
2022-10-11T10:43:37.771Z,23.58
2022-10-11T10:44:37.814Z,23.80
2022-10-11T10:45:37.783Z,23.69
2022-10-11T10:46:37.773Z,23.57
2022-10-11T10:47:37.798Z,23.47
2022-10-11T10:49:01.981Z,23.80
2022-10-11T10:49:53.755Z,24.05
2022-10-11T10:50:38.696Z,24.55
2022-10-11T10:51:37.718Z,24.96
2022-10-11T10:52:37.924Z,24.64
2022-10-11T10:53:37.701Z,24.52
2022-10-11T10:54:37.679Z,24.69
2022-10-11T10:55:37.712Z,24.77
2022-10-11T10:56:37.636Z,24.22
2022-10-11T10:57:37.670Z,23.66
2022-10-11T10:58:37.628Z,23.46
2022-10-11T10:59:37.630Z,22.12
2022-10-11T11:00:37.598Z,20.99
2022-10-11T11:01:37.655Z,20.61
2022-10-11T11:02:41.655Z,20.97
2022-10-11T11:03:37.570Z,21.98
2022-10-11T11:04:37.574Z,22.80
2022-10-11T11:05:37.548Z,23.19
2022-10-11T11:06:37.544Z,23.79
2022-10-11T11:07:37.555Z,24.18
2022-10-11T11:08:37.553Z,24.45
2022-10-11T11:09:37.513Z,24.84
2022-10-11T11:10:37.490Z,24.45
2022-10-11T11:11:37.482Z,24.25
2022-10-11T11:12:37.509Z,23.87
2022-10-11T11:13:37.487Z,23.46
2022-10-11T11:14:37.460Z,23.13
2022-10-11T11:15:38.370Z,23.15
2022-10-11T11:16:37.438Z,22.90
2022-10-11T11:17:37.449Z,23.01
2022-10-11T11:18:37.440Z,23.53
2022-10-11T11:19:37.409Z,23.47
2022-10-11T11:20:37.419Z,23.40
2022-10-11T11:21:41.404Z,23.38
2022-10-11T11:22:37.403Z,23.66
2022-10-11T11:23:37.389Z,24.05
2022-10-11T11:24:37.397Z,24.35
2022-10-11T11:25:40.272Z,24.52
2022-10-11T11:26:41.958Z,24.84
2022-10-11T11:27:38.312Z,24.88
2022-10-11T11:28:37.383Z,24.80
2022-10-11T11:29:37.308Z,24.57
2022-10-11T11:30:37.411Z,24.42
2022-10-11T11:31:37.261Z,24.05
2022-10-11T11:32:37.265Z,24.10
2022-10-11T11:33:37.275Z,24.15
2022-10-11T11:34:37.248Z,23.93
2022-10-11T11:35:37.222Z,24.12
2022-10-11T11:36:37.260Z,24.22
2022-10-11T11:37:37.238Z,24.22
2022-10-11T11:38:37.220Z,24.13
2022-10-11T11:39:37.197Z,24.25
2022-10-11T11:40:37.169Z,24.46
2022-10-11T11:41:37.234Z,24.50
2022-10-11T11:42:37.153Z,24.42
2022-10-11T11:43:38.186Z,24.43
2022-10-11T11:44:37.130Z,24.55
2022-10-11T11:45:37.131Z,24.71
2022-10-11T11:46:37.128Z,24.67
2022-10-11T11:47:37.140Z,24.53
2022-10-11T11:48:37.088Z,24.60
2022-10-11T11:49:37.124Z,24.73
2022-10-11T11:50:37.181Z,24.73
2022-10-11T11:51:37.073Z,24.90
2022-10-11T11:52:37.073Z,24.99
2022-10-11T11:53:37.041Z,24.13
2022-10-11T11:54:37.036Z,23.91
2022-10-11T11:55:37.039Z,23.69
2022-10-11T11:56:37.030Z,23.66
2022-10-11T11:57:37.006Z,23.58
2022-10-11T11:58:37.004Z,23.25
2022-10-11T11:59:36.987Z,23.23
2022-10-11T12:00:36.993Z,23.36
2022-10-11T12:01:36.989Z,23.19
2022-10-11T12:02:36.995Z,22.70
2022-10-11T12:03:41.437Z,22.91
2022-10-11T12:04:36.930Z,23.40
2022-10-11T12:05:36.899Z,23.95
2022-10-11T12:06:47.694Z,24.28
2022-10-11T12:07:37.936Z,24.49
2022-10-11T12:08:36.902Z,24.37
2022-10-11T12:09:36.876Z,24.43
2022-10-11T12:10:36.885Z,24.53
2022-10-11T12:11:36.870Z,24.67
2022-10-11T12:12:36.851Z,24.40
2022-10-11T12:13:36.910Z,24.34
2022-10-11T12:14:36.809Z,24.27
2022-10-11T12:15:36.813Z,24.10
2022-10-11T12:16:36.803Z,23.98
2022-10-11T12:17:36.865Z,24.06
2022-10-11T12:18:41.918Z,24.15
2022-10-11T12:19:37.780Z,24.06
2022-10-11T12:20:36.751Z,23.98
2022-10-11T12:21:36.752Z,23.63
2022-10-11T12:22:36.749Z,23.68
2022-10-11T12:23:36.756Z,23.15
2022-10-11T12:24:36.748Z,22.24
2022-10-11T12:25:36.718Z,21.40
2022-10-11T12:26:36.732Z,20.74
2022-10-11T12:27:36.728Z,20.14
2022-10-11T12:28:36.743Z,19.55
2022-10-11T12:29:36.660Z,19.00
2022-10-11T12:30:36.651Z,18.67
2022-10-11T12:31:36.640Z,18.52
2022-10-11T12:32:36.632Z,18.47
2022-10-11T12:33:36.658Z,18.39
2022-10-11T12:34:36.704Z,18.39
2022-10-11T12:35:36.615Z,18.42
2022-10-11T12:36:36.588Z,18.39
2022-10-11T12:37:36.634Z,18.44
2022-10-11T12:38:36.604Z,18.42
2022-10-11T12:39:36.565Z,18.39
2022-10-11T12:40:36.550Z,18.26
2022-10-11T12:41:36.511Z,18.15
2022-10-11T12:42:36.515Z,18.00
2022-10-11T12:43:36.535Z,17.95
2022-10-11T12:44:36.511Z,17.90
2022-10-11T12:45:36.546Z,17.78
2022-10-11T12:46:36.487Z,17.55
2022-10-11T12:47:36.453Z,17.40
2022-10-11T12:48:40.757Z,17.26
2022-10-11T12:49:36.528Z,17.23
2022-10-11T12:50:36.456Z,17.22
2022-10-11T12:51:36.417Z,17.26
2022-10-11T12:52:36.412Z,17.30
2022-10-11T12:53:36.375Z,17.33
2022-10-11T12:54:37.411Z,17.38
2022-10-11T12:55:36.407Z,17.41